sensor_id;sensor_type;location;lat;lon;timestamp;pressure;altitude;pressure_sealevel;temperature;humidity
71907;BME280;59781;52.090;5.030;2023-11-21T00:00:19;101136.56;;;6.00;100.00
71907;BME280;59781;52.090;5.030;2023-11-21T00:02:46;101129.66;;;5.98;100.00
71907;BME280;59781;52.090;5.030;2023-11-21T00:05:13;101132.81;;;5.82;100.00
71907;BME280;59781;52.090;5.030;2023-11-21T00:07:40;101132.94;;;5.81;100.00
71907;BME280;59781;52.090;5.030;2023-11-21T00:10:07;101149.34;;;5.76;100.00
71907;BME280;59781;52.090;5.030;2023-11-21T00:12:34;101153.16;;;5.73;100.00
71907;BME280;59781;52.090;5.030;2023-11-21T00:15:01;101147.25;;;5.80;100.00
71907;BME280;59781;52.090;5.030;2023-11-21T00:17:30;101153.28;;;5.72;100.00
71907;BME280;59781;52.090;5.030;2023-11-21T00:19:56;101149.75;;;5.71;100.00
71907;BME280;59781;52.090;5.030;2023-11-21T00:22:22;101159.13;;;5.66;100.00
71907;BME280;59781;52.090;5.030;2023-11-21T00:24:47;101172.00;;;5.72;100.00
71907;BME280;59781;52.090;5.030;2023-11-21T00:27:13;101167.50;;;5.72;100.00
71907;BME280;59781;52.090;5.030;2023-11-21T00:29:40;101166.19;;;5.67;100.00
71907;BME280;59781;52.090;5.030;2023-11-21T00:32:06;101158.53;;;5.83;100.00
71907;BME280;59781;52.090;5.030;2023-11-21T00:34:32;101163.19;;;5.81;100.00
71907;BME280;59781;52.090;5.030;2023-11-21T00:36:58;101165.72;;;5.83;100.00
71907;BME280;59781;52.090;5.030;2023-11-21T00:39:25;101156.53;;;5.96;100.00
71907;BME280;59781;52.090;5.030;2023-11-21T00:41:52;101162.00;;;5.95;100.00
71907;BME280;59781;52.090;5.030;2023-11-21T00:44:18;101157.16;;;5.89;100.00
71907;BME280;59781;52.090;5.030;2023-11-21T00:46:44;101159.38;;;5.84;100.00
71907;BME280;59781;52.090;5.030;2023-11-21T00:49:10;101169.94;;;5.85;100.00
71907;BME280;59781;52.090;5.030;2023-11-21T00:51:35;101167.06;;;5.77;100.00
71907;BME280;59781;52.090;5.030;2023-11-21T00:54:01;101169.56;;;5.69;100.00
71907;BME280;59781;52.090;5.030;2023-11-21T00:56:28;101170.16;;;5.72;100.00
71907;BME280;59781;52.090;5.030;2023-11-21T00:58:53;101172.91;;;5.61;100.00
71907;BME280;59781;52.090;5.030;2023-11-21T01:01:20;101170.22;;;6.03;100.00
71907;BME280;59781;52.090;5.030;2023-11-21T01:03:50;101180.09;;;6.12;100.00
71907;BME280;59781;52.090;5.030;2023-11-21T01:06:16;101177.34;;;6.23;100.00
71907;BME280;59781;52.090;5.030;2023-11-21T01:08:43;101175.50;;;6.24;100.00
71907;BME280;59781;52.090;5.030;2023-11-21T01:11:09;101186.34;;;6.22;100.00
71907;BME280;59781;52.090;5.030;2023-11-21T01:13:41;101183.91;;;6.10;100.00
71907;BME280;59781;52.090;5.030;2023-11-21T01:16:08;101197.84;;;6.13;100.00
71907;BME280;59781;52.090;5.030;2023-11-21T01:18:35;101191.88;;;6.00;100.00
71907;BME280;59781;52.090;5.030;2023-11-21T01:21:01;101193.38;;;5.93;100.00
71907;BME280;59781;52.090;5.030;2023-11-21T01:23:27;101192.81;;;5.99;100.00
71907;BME280;59781;52.090;5.030;2023-11-21T01:25:55;101194.94;;;5.95;100.00
71907;BME280;59781;52.090;5.030;2023-11-21T01:28:22;101198.16;;;5.99;100.00
71907;BME280;59781;52.090;5.030;2023-11-21T01:30:48;101191.94;;;6.19;100.00
71907;BME280;59781;52.090;5.030;2023-11-21T01:33:14;101197.41;;;6.18;100.00
71907;BME280;59781;52.090;5.030;2023-11-21T01:35:41;101197.50;;;6.37;100.00
71907;BME280;59781;52.090;5.030;2023-11-21T01:38:08;101205.84;;;6.44;100.00
71907;BME280;59781;52.090;5.030;2023-11-21T01:40:34;101209.97;;;6.57;100.00
71907;BME280;59781;52.090;5.030;2023-11-21T01:43:00;101208.94;;;6.49;100.00
71907;BME280;59781;52.090;5.030;2023-11-21T01:45:29;101210.53;;;6.51;100.00
71907;BME280;59781;52.090;5.030;2023-11-21T01:47:57;101221.22;;;6.51;100.00
71907;BME280;59781;52.090;5.030;2023-11-21T01:50:24;101228.97;;;6.54;100.00
71907;BME280;59781;52.090;5.030;2023-11-21T01:52:51;101231.69;;;6.64;100.00
71907;BME280;59781;52.090;5.030;2023-11-21T01:55:19;101233.56;;;6.83;100.00
71907;BME280;59781;52.090;5.030;2023-11-21T01:57:45;101230.88;;;6.73;100.00
71907;BME280;59781;52.090;5.030;2023-11-21T02:00:12;101231.03;;;6.81;100.00
71907;BME280;59781;52.090;5.030;2023-11-21T02:02:43;101237.66;;;6.87;100.00
71907;BME280;59781;52.090;5.030;2023-11-21T02:05:19;101242.03;;;6.88;100.00
71907;BME280;59781;52.090;5.030;2023-11-21T02:07:46;101240.91;;;6.90;100.00
71907;BME280;59781;52.090;5.030;2023-11-21T02:10:15;101242.50;;;7.03;100.00
71907;BME280;59781;52.090;5.030;2023-11-21T02:12:42;101255.72;;;7.04;100.00
71907;BME280;59781;52.090;5.030;2023-11-21T02:15:13;101256.03;;;7.01;100.00
71907;BME280;59781;52.090;5.030;2023-11-21T02:17:46;101253.63;;;6.98;100.00
71907;BME280;59781;52.090;5.030;2023-11-21T02:20:17;101256.44;;;7.16;100.00
71907;BME280;59781;52.090;5.030;2023-11-21T02:22:54;101248.19;;;7.38;100.00
71907;BME280;59781;52.090;5.030;2023-11-21T02:25:31;101248.44;;;7.35;100.00
71907;BME280;59781;52.090;5.030;2023-11-21T02:28:00;101248.19;;;7.58;100.00
71907;BME280;59781;52.090;5.030;2023-11-21T02:30:27;101247.75;;;7.43;100.00
71907;BME280;59781;52.090;5.030;2023-11-21T02:32:54;101259.88;;;7.28;100.00
71907;BME280;59781;52.090;5.030;2023-11-21T02:35:22;101252.66;;;7.18;100.00
71907;BME280;59781;52.090;5.030;2023-11-21T02:37:49;101260.56;;;7.20;100.00
71907;BME280;59781;52.090;5.030;2023-11-21T02:40:15;101251.84;;;7.28;100.00
71907;BME280;59781;52.090;5.030;2023-11-21T02:42:46;101262.41;;;7.29;100.00
71907;BME280;59781;52.090;5.030;2023-11-21T02:45:16;101262.56;;;7.28;100.00
71907;BME280;59781;52.090;5.030;2023-11-21T02:47:43;101264.34;;;7.27;100.00
71907;BME280;59781;52.090;5.030;2023-11-21T02:50:10;101271.28;;;7.30;100.00
71907;BME280;59781;52.090;5.030;2023-11-21T02:52:35;101257.44;;;7.25;100.00
71907;BME280;59781;52.090;5.030;2023-11-21T02:55:02;101265.09;;;7.29;100.00
71907;BME280;59781;52.090;5.030;2023-11-21T02:57:28;101256.78;;;7.42;100.00
71907;BME280;59781;52.090;5.030;2023-11-21T02:59:54;101263.81;;;7.53;100.00
71907;BME280;59781;52.090;5.030;2023-11-21T03:02:20;101266.19;;;7.36;100.00
71907;BME280;59781;52.090;5.030;2023-11-21T03:04:46;101254.25;;;7.40;100.00
71907;BME280;59781;52.090;5.030;2023-11-21T03:07:15;101259.28;;;7.34;100.00
71907;BME280;59781;52.090;5.030;2023-11-21T03:09:41;101255.63;;;7.25;100.00
71907;BME280;59781;52.090;5.030;2023-11-21T03:12:07;101263.66;;;7.35;100.00
71907;BME280;59781;52.090;5.030;2023-11-21T03:14:34;101263.81;;;7.24;100.00
71907;BME280;59781;52.090;5.030;2023-11-21T03:16:59;101263.97;;;7.32;100.00
71907;BME280;59781;52.090;5.030;2023-11-21T03:19:27;101272.53;;;7.26;100.00
71907;BME280;59781;52.090;5.030;2023-11-21T03:21:52;101270.00;;;7.14;100.00
71907;BME280;59781;52.090;5.030;2023-11-21T03:24:18;101278.91;;;7.34;100.00
71907;BME280;59781;52.090;5.030;2023-11-21T03:26:45;101275.09;;;7.37;100.00
71907;BME280;59781;52.090;5.030;2023-11-21T03:29:12;101272.13;;;7.30;100.00
71907;BME280;59781;52.090;5.030;2023-11-21T03:31:38;101277.66;;;7.38;100.00
71907;BME280;59781;52.090;5.030;2023-11-21T03:34:04;101279.06;;;7.42;100.00
71907;BME280;59781;52.090;5.030;2023-11-21T03:36:30;101276.81;;;7.38;100.00
71907;BME280;59781;52.090;5.030;2023-11-21T03:38:56;101281.72;;;7.42;100.00
71907;BME280;59781;52.090;5.030;2023-11-21T03:41:21;101287.09;;;7.33;100.00
71907;BME280;59781;52.090;5.030;2023-11-21T03:43:47;101292.00;;;7.47;100.00
71907;BME280;59781;52.090;5.030;2023-11-21T03:46:13;101297.13;;;7.60;100.00
71907;BME280;59781;52.090;5.030;2023-11-21T03:48:39;101289.78;;;7.81;100.00
71907;BME280;59781;52.090;5.030;2023-11-21T03:51:05;101285.25;;;7.91;100.00
71907;BME280;59781;52.090;5.030;2023-11-21T03:53:33;101291.75;;;7.98;100.00
71907;BME280;59781;52.090;5.030;2023-11-21T03:56:02;101289.34;;;7.76;100.00
71907;BME280;59781;52.090;5.030;2023-11-21T03:58:29;101289.09;;;7.69;100.00
71907;BME280;59781;52.090;5.030;2023-11-21T04:00:55;101293.75;;;7.77;100.00
71907;BME280;59781;52.090;5.030;2023-11-21T04:03:21;101296.78;;;8.21;100.00
71907;BME280;59781;52.090;5.030;2023-11-21T04:05:46;101293.63;;;8.45;100.00
71907;BME280;59781;52.090;5.030;2023-11-21T04:08:12;101296.22;;;8.17;100.00
71907;BME280;59781;52.090;5.030;2023-11-21T04:10:38;101302.72;;;8.15;100.00
71907;BME280;59781;52.090;5.030;2023-11-21T04:13:05;101302.47;;;7.98;100.00
71907;BME280;59781;52.090;5.030;2023-11-21T04:15:32;101305.53;;;8.23;100.00
71907;BME280;59781;52.090;5.030;2023-11-21T04:17:58;101308.66;;;8.09;100.00
71907;BME280;59781;52.090;5.030;2023-11-21T04:20:24;101310.66;;;7.97;100.00
71907;BME280;59781;52.090;5.030;2023-11-21T04:22:49;101319.66;;;7.96;100.00
71907;BME280;59781;52.090;5.030;2023-11-21T04:25:16;101321.25;;;7.98;100.00
71907;BME280;59781;52.090;5.030;2023-11-21T04:27:42;101333.97;;;7.96;100.00
71907;BME280;59781;52.090;5.030;2023-11-21T04:30:10;101339.16;;;8.08;100.00
71907;BME280;59781;52.090;5.030;2023-11-21T04:32:37;101345.22;;;8.19;100.00
71907;BME280;59781;52.090;5.030;2023-11-21T04:35:05;101347.91;;;8.19;100.00
71907;BME280;59781;52.090;5.030;2023-11-21T04:37:31;101350.00;;;8.16;100.00
71907;BME280;59781;52.090;5.030;2023-11-21T04:39:56;101356.94;;;8.18;100.00
71907;BME280;59781;52.090;5.030;2023-11-21T04:42:22;101358.78;;;8.27;100.00
71907;BME280;59781;52.090;5.030;2023-11-21T04:44:49;101356.63;;;8.31;100.00
71907;BME280;59781;52.090;5.030;2023-11-21T04:47:15;101359.47;;;8.29;100.00
71907;BME280;59781;52.090;5.030;2023-11-21T04:49:43;101360.47;;;8.28;100.00
71907;BME280;59781;52.090;5.030;2023-11-21T04:52:12;101364.97;;;8.28;100.00
71907;BME280;59781;52.090;5.030;2023-11-21T04:54:38;101357.47;;;8.51;100.00
71907;BME280;59781;52.090;5.030;2023-11-21T04:57:05;101359.91;;;8.81;100.00
71907;BME280;59781;52.090;5.030;2023-11-21T04:59:33;101361.66;;;8.63;100.00
71907;BME280;59781;52.090;5.030;2023-11-21T05:01:59;101356.88;;;8.67;100.00
71907;BME280;59781;52.090;5.030;2023-11-21T05:04:28;101366.13;;;8.82;100.00
71907;BME280;59781;52.090;5.030;2023-11-21T05:06:54;101372.69;;;8.70;100.00
71907;BME280;59781;52.090;5.030;2023-11-21T05:09:20;101379.94;;;8.59;100.00
71907;BME280;59781;52.090;5.030;2023-11-21T05:11:47;101374.84;;;8.56;100.00
71907;BME280;59781;52.090;5.030;2023-11-21T05:14:13;101373.28;;;8.54;100.00
71907;BME280;59781;52.090;5.030;2023-11-21T05:16:39;101382.94;;;8.47;100.00
71907;BME280;59781;52.090;5.030;2023-11-21T05:19:05;101381.66;;;8.41;100.00
71907;BME280;59781;52.090;5.030;2023-11-21T05:21:31;101384.88;;;8.45;100.00
71907;BME280;59781;52.090;5.030;2023-11-21T05:24:01;101383.03;;;8.45;100.00
71907;BME280;59781;52.090;5.030;2023-11-21T05:26:26;101381.94;;;8.38;100.00
71907;BME280;59781;52.090;5.030;2023-11-21T05:28:53;101388.84;;;8.41;100.00
71907;BME280;59781;52.090;5.030;2023-11-21T05:31:18;101393.09;;;8.43;100.00
71907;BME280;59781;52.090;5.030;2023-11-21T05:33:44;101400.69;;;8.67;100.00
71907;BME280;59781;52.090;5.030;2023-11-21T05:36:10;101392.88;;;8.74;100.00
71907;BME280;59781;52.090;5.030;2023-11-21T05:38:36;101403.75;;;8.72;100.00
71907;BME280;59781;52.090;5.030;2023-11-21T05:41:02;101399.41;;;8.61;100.00
71907;BME280;59781;52.090;5.030;2023-11-21T05:43:29;101411.59;;;8.56;100.00
71907;BME280;59781;52.090;5.030;2023-11-21T05:45:56;101420.50;;;8.56;100.00
71907;BME280;59781;52.090;5.030;2023-11-21T05:48:22;101424.56;;;8.70;100.00
71907;BME280;59781;52.090;5.030;2023-11-21T05:50:48;101418.63;;;8.67;100.00
71907;BME280;59781;52.090;5.030;2023-11-21T05:53:15;101425.13;;;8.64;100.00
71907;BME280;59781;52.090;5.030;2023-11-21T05:55:42;101430.75;;;8.80;100.00
71907;BME280;59781;52.090;5.030;2023-11-21T05:58:08;101424.09;;;8.75;100.00
71907;BME280;59781;52.090;5.030;2023-11-21T06:00:34;101428.03;;;8.90;100.00
71907;BME280;59781;52.090;5.030;2023-11-21T06:03:00;101436.34;;;9.06;100.00
71907;BME280;59781;52.090;5.030;2023-11-21T06:05:26;101441.88;;;8.95;100.00
71907;BME280;59781;52.090;5.030;2023-11-21T06:07:53;101450.66;;;8.97;100.00
71907;BME280;59781;52.090;5.030;2023-11-21T06:10:21;101457.25;;;9.03;100.00
71907;BME280;59781;52.090;5.030;2023-11-21T06:12:49;101465.06;;;8.96;100.00
71907;BME280;59781;52.090;5.030;2023-11-21T06:15:15;101468.72;;;9.05;100.00
71907;BME280;59781;52.090;5.030;2023-11-21T06:17:42;101471.38;;;9.14;100.00
71907;BME280;59781;52.090;5.030;2023-11-21T06:20:10;101468.94;;;9.21;100.00
71907;BME280;59781;52.090;5.030;2023-11-21T06:22:43;101472.31;;;9.23;100.00
71907;BME280;59781;52.090;5.030;2023-11-21T06:25:11;101471.59;;;9.31;100.00
71907;BME280;59781;52.090;5.030;2023-11-21T06:27:41;101459.84;;;9.32;100.00
71907;BME280;59781;52.090;5.030;2023-11-21T06:30:10;101460.06;;;9.11;100.00
71907;BME280;59781;52.090;5.030;2023-11-21T06:32:39;101470.38;;;9.15;100.00
71907;BME280;59781;52.090;5.030;2023-11-21T06:35:06;101476.50;;;9.08;100.00
71907;BME280;59781;52.090;5.030;2023-11-21T06:37:33;101473.69;;;9.00;100.00
71907;BME280;59781;52.090;5.030;2023-11-21T06:40:00;101465.63;;;9.00;100.00
71907;BME280;59781;52.090;5.030;2023-11-21T06:42:27;101474.38;;;9.02;100.00
71907;BME280;59781;52.090;5.030;2023-11-21T06:44:54;101482.44;;;9.02;100.00
71907;BME280;59781;52.090;5.030;2023-11-21T06:47:22;101487.66;;;9.03;100.00
71907;BME280;59781;52.090;5.030;2023-11-21T06:49:52;101502.38;;;9.09;100.00
71907;BME280;59781;52.090;5.030;2023-11-21T06:52:19;101504.03;;;9.19;100.00
71907;BME280;59781;52.090;5.030;2023-11-21T06:54:45;101512.25;;;9.18;100.00
71907;BME280;59781;52.090;5.030;2023-11-21T06:57:13;101508.84;;;9.16;100.00
71907;BME280;59781;52.090;5.030;2023-11-21T06:59:38;101511.38;;;9.27;100.00
71907;BME280;59781;52.090;5.030;2023-11-21T07:02:04;101518.84;;;9.24;100.00
71907;BME280;59781;52.090;5.030;2023-11-21T07:04:32;101519.16;;;9.20;100.00
71907;BME280;59781;52.090;5.030;2023-11-21T07:06:59;101529.84;;;9.40;100.00
71907;BME280;59781;52.090;5.030;2023-11-21T07:09:25;101530.53;;;9.42;100.00
71907;BME280;59781;52.090;5.030;2023-11-21T07:11:54;101525.91;;;9.44;100.00
71907;BME280;59781;52.090;5.030;2023-11-21T07:14:21;101524.03;;;9.54;100.00
71907;BME280;59781;52.090;5.030;2023-11-21T07:16:47;101520.59;;;9.52;100.00
71907;BME280;59781;52.090;5.030;2023-11-21T07:19:14;101530.47;;;9.61;100.00
71907;BME280;59781;52.090;5.030;2023-11-21T07:21:40;101534.84;;;9.62;100.00
71907;BME280;59781;52.090;5.030;2023-11-21T07:24:07;101528.19;;;9.66;100.00
71907;BME280;59781;52.090;5.030;2023-11-21T07:26:34;101530.47;;;9.61;100.00
71907;BME280;59781;52.090;5.030;2023-11-21T07:29:01;101535.69;;;9.63;100.00
71907;BME280;59781;52.090;5.030;2023-11-21T07:31:28;101536.91;;;9.78;100.00
71907;BME280;59781;52.090;5.030;2023-11-21T07:33:54;101543.50;;;9.66;100.00
71907;BME280;59781;52.090;5.030;2023-11-21T07:36:23;101551.25;;;9.69;100.00
71907;BME280;59781;52.090;5.030;2023-11-21T07:38:49;101557.91;;;9.74;100.00
71907;BME280;59781;52.090;5.030;2023-11-21T07:41:16;101553.75;;;9.80;100.00
71907;BME280;59781;52.090;5.030;2023-11-21T07:43:45;101551.63;;;9.84;100.00
71907;BME280;59781;52.090;5.030;2023-11-21T07:46:12;101556.75;;;9.77;100.00
71907;BME280;59781;52.090;5.030;2023-11-21T07:48:39;101568.25;;;9.97;100.00
71907;BME280;59781;52.090;5.030;2023-11-21T07:51:06;101565.03;;;9.93;100.00
71907;BME280;59781;52.090;5.030;2023-11-21T07:53:32;101574.81;;;9.94;100.00
71907;BME280;59781;52.090;5.030;2023-11-21T07:56:02;101570.69;;;9.90;100.00
71907;BME280;59781;52.090;5.030;2023-11-21T07:58:29;101576.50;;;9.95;100.00
71907;BME280;59781;52.090;5.030;2023-11-21T08:00:55;101579.34;;;9.94;100.00
71907;BME280;59781;52.090;5.030;2023-11-21T08:03:20;101586.44;;;10.13;100.00
71907;BME280;59781;52.090;5.030;2023-11-21T08:05:46;101595.50;;;10.12;100.00
71907;BME280;59781;52.090;5.030;2023-11-21T08:08:12;101593.38;;;10.15;100.00
71907;BME280;59781;52.090;5.030;2023-11-21T08:10:38;101604.41;;;10.22;100.00
71907;BME280;59781;52.090;5.030;2023-11-21T08:13:05;101602.50;;;10.04;100.00
71907;BME280;59781;52.090;5.030;2023-11-21T08:15:31;101606.19;;;10.03;100.00
71907;BME280;59781;52.090;5.030;2023-11-21T08:17:58;101613.59;;;10.29;100.00
71907;BME280;59781;52.090;5.030;2023-11-21T08:20:26;101623.25;;;10.49;100.00
71907;BME280;59781;52.090;5.030;2023-11-21T08:22:53;101619.03;;;10.47;100.00
71907;BME280;59781;52.090;5.030;2023-11-21T08:25:22;101620.50;;;10.31;100.00
71907;BME280;59781;52.090;5.030;2023-11-21T08:27:47;101627.75;;;10.21;100.00
71907;BME280;59781;52.090;5.030;2023-11-21T08:30:13;101632.28;;;10.30;100.00
71907;BME280;59781;52.090;5.030;2023-11-21T08:32:39;101634.97;;;10.30;100.00
71907;BME280;59781;52.090;5.030;2023-11-21T08:35:07;101638.97;;;10.26;100.00
71907;BME280;59781;52.090;5.030;2023-11-21T08:37:33;101637.22;;;10.35;100.00
71907;BME280;59781;52.090;5.030;2023-11-21T08:40:05;101644.00;;;10.39;100.00
71907;BME280;59781;52.090;5.030;2023-11-21T08:42:37;101640.88;;;10.44;100.00
71907;BME280;59781;52.090;5.030;2023-11-21T08:45:04;101641.09;;;10.50;100.00
71907;BME280;59781;52.090;5.030;2023-11-21T08:47:31;101650.13;;;10.59;100.00
71907;BME280;59781;52.090;5.030;2023-11-21T08:49:57;101648.59;;;10.56;100.00
71907;BME280;59781;52.090;5.030;2023-11-21T08:52:24;101652.31;;;10.73;100.00
71907;BME280;59781;52.090;5.030;2023-11-21T08:54:50;101660.94;;;10.77;100.00
71907;BME280;59781;52.090;5.030;2023-11-21T08:57:24;101662.78;;;10.94;100.00
71907;BME280;59781;52.090;5.030;2023-11-21T08:59:49;101655.81;;;11.01;100.00
71907;BME280;59781;52.090;5.030;2023-11-21T09:02:21;101664.81;;;10.92;100.00
71907;BME280;59781;52.090;5.030;2023-11-21T09:04:50;101664.88;;;10.82;100.00
71907;BME280;59781;52.090;5.030;2023-11-21T09:07:20;101675.25;;;10.77;100.00
71907;BME280;59781;52.090;5.030;2023-11-21T09:09:47;101677.09;;;10.49;100.00
71907;BME280;59781;52.090;5.030;2023-11-21T09:12:14;101677.56;;;10.45;100.00
71907;BME280;59781;52.090;5.030;2023-11-21T09:14:42;101693.38;;;10.30;100.00
71907;BME280;59781;52.090;5.030;2023-11-21T09:17:10;101695.91;;;10.31;100.00
71907;BME280;59781;52.090;5.030;2023-11-21T09:19:43;101695.13;;;10.49;100.00
71907;BME280;59781;52.090;5.030;2023-11-21T09:22:16;101700.75;;;10.55;100.00
71907;BME280;59781;52.090;5.030;2023-11-21T09:24:42;101708.47;;;10.41;100.00
71907;BME280;59781;52.090;5.030;2023-11-21T09:27:08;101706.78;;;10.40;100.00
71907;BME280;59781;52.090;5.030;2023-11-21T09:29:35;101710.53;;;10.19;100.00
71907;BME280;59781;52.090;5.030;2023-11-21T09:32:05;101714.63;;;10.33;100.00
71907;BME280;59781;52.090;5.030;2023-11-21T09:34:37;101725.78;;;10.38;100.00
71907;BME280;59781;52.090;5.030;2023-11-21T09:37:06;101729.63;;;10.36;100.00
71907;BME280;59781;52.090;5.030;2023-11-21T09:39:32;101742.91;;;10.47;100.00
71907;BME280;59781;52.090;5.030;2023-11-21T09:42:10;101744.47;;;10.40;100.00
71907;BME280;59781;52.090;5.030;2023-11-21T09:47:35;101756.94;;;10.41;100.00
71907;BME280;59781;52.090;5.030;2023-11-21T09:50:04;101755.56;;;10.37;100.00
71907;BME280;59781;52.090;5.030;2023-11-21T09:52:49;101754.56;;;10.38;100.00
71907;BME280;59781;52.090;5.030;2023-11-21T09:55:36;101763.38;;;10.30;100.00
71907;BME280;59781;52.090;5.030;2023-11-21T09:58:06;101765.44;;;10.46;100.00
71907;BME280;59781;52.090;5.030;2023-11-21T10:00:40;101767.47;;;10.61;100.00
71907;BME280;59781;52.090;5.030;2023-11-21T10:03:08;101760.13;;;10.63;100.00
71907;BME280;59781;52.090;5.030;2023-11-21T10:05:35;101769.41;;;10.42;100.00
71907;BME280;59781;52.090;5.030;2023-11-21T10:08:08;101778.59;;;10.49;100.00
71907;BME280;59781;52.090;5.030;2023-11-21T10:10:37;101783.59;;;10.44;100.00
71907;BME280;59781;52.090;5.030;2023-11-21T10:13:11;101783.25;;;10.56;100.00
71907;BME280;59781;52.090;5.030;2023-11-21T10:15:42;101784.84;;;10.49;100.00
71907;BME280;59781;52.090;5.030;2023-11-21T10:18:14;101792.50;;;10.54;100.00
71907;BME280;59781;52.090;5.030;2023-11-21T10:20:41;101799.69;;;10.63;100.00
71907;BME280;59781;52.090;5.030;2023-11-21T10:23:08;101798.22;;;10.69;100.00
71907;BME280;59781;52.090;5.030;2023-11-21T10:25:37;101804.66;;;10.58;100.00
71907;BME280;59781;52.090;5.030;2023-11-21T10:28:03;101813.25;;;10.34;100.00
71907;BME280;59781;52.090;5.030;2023-11-21T10:30:34;101820.31;;;10.45;100.00
71907;BME280;59781;52.090;5.030;2023-11-21T10:33:04;101828.69;;;10.32;100.00
71907;BME280;59781;52.090;5.030;2023-11-21T10:35:44;101822.41;;;10.41;100.00
71907;BME280;59781;52.090;5.030;2023-11-21T10:38:17;101830.69;;;10.30;100.00
71907;BME280;59781;52.090;5.030;2023-11-21T10:40:44;101836.91;;;10.30;100.00
71907;BME280;59781;52.090;5.030;2023-11-21T10:43:11;101835.84;;;10.51;100.00
71907;BME280;59781;52.090;5.030;2023-11-21T10:45:41;101840.59;;;10.29;100.00
71907;BME280;59781;52.090;5.030;2023-11-21T10:48:10;101839.44;;;10.42;100.00
71907;BME280;59781;52.090;5.030;2023-11-21T10:50:41;101841.28;;;10.41;100.00
71907;BME280;59781;52.090;5.030;2023-11-21T10:53:07;101855.59;;;10.42;100.00
71907;BME280;59781;52.090;5.030;2023-11-21T10:55:34;101855.47;;;10.43;100.00
71907;BME280;59781;52.090;5.030;2023-11-21T10:58:04;101859.19;;;10.32;100.00
71907;BME280;59781;52.090;5.030;2023-11-21T11:00:32;101860.03;;;10.33;100.00
71907;BME280;59781;52.090;5.030;2023-11-21T11:02:59;101855.47;;;10.33;100.00
71907;BME280;59781;52.090;5.030;2023-11-21T11:05:27;101862.22;;;10.57;100.00
71907;BME280;59781;52.090;5.030;2023-11-21T11:08:06;101855.47;;;10.43;100.00
71907;BME280;59781;52.090;5.030;2023-11-21T11:10:37;101861.97;;;10.41;100.00
71907;BME280;59781;52.090;5.030;2023-11-21T11:13:04;101870.34;;;10.38;100.00
71907;BME280;59781;52.090;5.030;2023-11-21T11:15:32;101869.16;;;10.59;100.00
71907;BME280;59781;52.090;5.030;2023-11-21T11:17:58;101866.66;;;10.29;100.00
71907;BME280;59781;52.090;5.030;2023-11-21T11:20:47;101867.22;;;10.42;100.00
71907;BME280;59781;52.090;5.030;2023-11-21T11:26:42;101865.50;;;10.41;100.00
71907;BME280;59781;52.090;5.030;2023-11-21T11:29:35;101870.47;;;10.46;100.00
71907;BME280;59781;52.090;5.030;2023-11-21T11:32:47;101868.81;;;10.35;100.00
71907;BME280;59781;52.090;5.030;2023-11-21T11:35:34;101872.19;;;10.37;100.00
71907;BME280;59781;52.090;5.030;2023-11-21T11:38:23;101869.66;;;10.36;100.00
71907;BME280;59781;52.090;5.030;2023-11-21T11:40:53;101876.28;;;10.41;100.00
71907;BME280;59781;52.090;5.030;2023-11-21T11:43:26;101881.78;;;10.49;100.00
71907;BME280;59781;52.090;5.030;2023-11-21T11:45:57;101881.34;;;10.63;100.00
71907;BME280;59781;52.090;5.030;2023-11-21T11:48:25;101882.38;;;10.53;100.00
71907;BME280;59781;52.090;5.030;2023-11-21T11:51:11;101883.91;;;10.55;100.00
71907;BME280;59781;52.090;5.030;2023-11-21T11:53:41;101891.41;;;10.52;100.00
71907;BME280;59781;52.090;5.030;2023-11-21T11:56:29;101895.84;;;10.43;100.00
71907;BME280;59781;52.090;5.030;2023-11-21T11:59:02;101888.66;;;10.34;100.00
71907;BME280;59781;52.090;5.030;2023-11-21T12:01:31;101895.69;;;10.54;100.00
71907;BME280;59781;52.090;5.030;2023-11-21T12:04:23;101898.94;;;10.48;100.00
71907;BME280;59781;52.090;5.030;2023-11-21T12:06:52;101901.63;;;10.58;100.00
71907;BME280;59781;52.090;5.030;2023-11-21T12:09:22;101897.00;;;10.31;100.00
71907;BME280;59781;52.090;5.030;2023-11-21T12:11:50;101903.09;;;10.43;100.00
71907;BME280;59781;52.090;5.030;2023-11-21T12:14:16;101919.47;;;10.59;100.00
71907;BME280;59781;52.090;5.030;2023-11-21T12:16:43;101909.19;;;10.45;100.00
71907;BME280;59781;52.090;5.030;2023-11-21T12:19:10;101904.03;;;10.51;100.00
71907;BME280;59781;52.090;5.030;2023-11-21T12:21:37;101911.00;;;10.54;100.00
71907;BME280;59781;52.090;5.030;2023-11-21T12:24:03;101915.66;;;10.61;100.00
71907;BME280;59781;52.090;5.030;2023-11-21T12:26:29;101913.69;;;10.54;100.00
71907;BME280;59781;52.090;5.030;2023-11-21T12:28:55;101914.25;;;10.19;100.00
71907;BME280;59781;52.090;5.030;2023-11-21T12:31:23;101921.50;;;10.28;100.00
71907;BME280;59781;52.090;5.030;2023-11-21T12:33:49;101927.75;;;10.38;100.00
71907;BME280;59781;52.090;5.030;2023-11-21T12:36:16;101923.47;;;10.55;100.00
71907;BME280;59781;52.090;5.030;2023-11-21T12:38:42;101932.53;;;10.63;100.00
71907;BME280;59781;52.090;5.030;2023-11-21T12:41:10;101927.72;;;10.57;100.00
71907;BME280;59781;52.090;5.030;2023-11-21T12:43:36;101932.81;;;10.60;100.00
71907;BME280;59781;52.090;5.030;2023-11-21T12:46:07;101930.41;;;10.57;100.00
71907;BME280;59781;52.090;5.030;2023-11-21T12:48:37;101930.97;;;10.51;100.00
71907;BME280;59781;52.090;5.030;2023-11-21T12:51:06;101940.03;;;10.70;100.00
71907;BME280;59781;52.090;5.030;2023-11-21T12:53:32;101940.09;;;10.97;100.00
71907;BME280;59781;52.090;5.030;2023-11-21T12:56:13;101940.78;;;10.99;100.00